Atlantis Alhambra — 9HA2101 — position and weather

sailwx.info

Track history (hours):
 
Tides and Currents Weather Stations Pressure Air Temp Water Temp Dewpoint Dewpoint Depression Visibility Wind Speed Wind Dir Waves Ship Positions

Atlantis Alhambra

Last reported at 2018-Feb-20 02:30 UTC. Time now 2018-Feb-20 08:06 UTC.
Position N 49°06' W 004°47'.

Length 109 m; draft 7 m.

Type: Ship (hazmat cat B). MMSI: 249960000.

Date/timePositionNaut miles runAvg speedWind from/ knotsBaromVisibWave heightAir tempDewpointWater temp
2018-Feb-20 02:30N 49°06' W 004°47'  
2018-Feb-17 20:23N 41°09' W 008°50'4 9.7
2018-Feb-17 20:00N 41°10' W 008°45'2 4.1
2018-Feb-17 19:30N 41°11' W 008°43'0 0.1
2018-Feb-17 18:59N 41°11' W 008°43'0 0.0
2018-Feb-17 18:29N 41°11' W 008°43'0 0.0
2018-Feb-17 17:59N 41°11' W 008°43'0 0.0
2018-Feb-17 17:29N 41°11' W 008°43'0 0.0
2018-Feb-17 16:59N 41°11' W 008°43'0 0.0
2018-Feb-17 16:29N 41°11' W 008°43'0 0.0
2018-Feb-17 15:59N 41°11' W 008°43'0 0.0
2018-Feb-17 15:29N 41°11' W 008°43'0 0.0
2018-Feb-17 14:59N 41°11' W 008°43'0 0.0
2018-Feb-17 14:29N 41°11' W 008°43'0 0.0
2018-Feb-17 13:59N 41°11' W 008°43'0 0.0
2018-Feb-17 13:29N 41°11' W 008°43'0 0.0
2018-Feb-17 12:59N 41°11' W 008°43'0 0.0
2018-Feb-17 12:29N 41°11' W 008°43'0 0.0
2018-Feb-17 11:59N 41°11' W 008°43'0 0.0
2018-Feb-17 11:29N 41°11' W 008°43'0 0.0
2018-Feb-17 10:59N 41°11' W 008°43'0 0.0
2018-Feb-17 10:29N 41°11' W 008°43'0 0.0
2018-Feb-17 09:59N 41°11' W 008°43'0 0.0
2018-Feb-17 09:29N 41°11' W 008°43'0 0.0
2018-Feb-17 08:59N 41°11' W 008°43'0 0.0
2018-Feb-17 08:29N 41°11' W 008°43'0 0.0
2018-Feb-17 07:59N 41°11' W 008°43'0 0.0
2018-Feb-17 07:29N 41°11' W 008°43'0 0.0
2018-Feb-17 06:59N 41°11' W 008°43'0 0.0
2018-Feb-17 06:29N 41°11' W 008°43'0 0.0
2018-Feb-17 05:59N 41°11' W 008°43'0 0.0
2018-Feb-17 05:29N 41°11' W 008°43'0 0.0
2018-Feb-17 04:59N 41°11' W 008°43'0 0.0
2018-Feb-17 04:29N 41°11' W 008°43'0 0.0
2018-Feb-17 03:59N 41°11' W 008°43'0 0.0
2018-Feb-17 03:29N 41°11' W 008°43'0 0.0
2018-Feb-17 02:59N 41°11' W 008°43'0 0.0
2018-Feb-17 02:29N 41°11' W 008°43'0 0.1
2018-Feb-17 02:00N 41°11' W 008°43'0 0.9
2018-Feb-17 01:30N 41°11' W 008°42'0 0.0
2018-Feb-17 00:59N 41°11' W 008°42'0 0.0
2018-Feb-17 00:29N 41°11' W 008°42'0 0.0
2018-Feb-16 23:59N 41°11' W 008°42'0 0.0
2018-Feb-16 23:29N 41°11' W 008°42'0 0.0
2018-Feb-16 22:59N 41°11' W 008°42'0 0.0
2018-Feb-16 22:29N 41°11' W 008°42'0 0.0
2018-Feb-16 21:59N 41°11' W 008°42'0 0.0
2018-Feb-16 21:29N 41°11' W 008°42'0 0.0
2018-Feb-16 20:59N 41°11' W 008°42'0 0.0
2018-Feb-16 20:29N 41°11' W 008°42'0 0.0
2018-Feb-16 19:59N 41°11' W 008°42'0 0.0
2018-Feb-16 19:29N 41°11' W 008°42'0 0.0
2018-Feb-16 18:59N 41°11' W 008°42'0 0.0
2018-Feb-16 18:29N 41°11' W 008°42'0 0.0
2018-Feb-16 17:59N 41°11' W 008°42'0 0.0
2018-Feb-16 17:29N 41°11' W 008°42'0 0.0
2018-Feb-16 16:59N 41°11' W 008°42'0 0.0
2018-Feb-16 16:23N 41°11' W 008°42'0 0.0
2018-Feb-16 15:59N 41°11' W 008°42'0 0.0
2018-Feb-16 15:29N 41°11' W 008°42'0 0.0
2018-Feb-16 14:59N 41°11' W 008°42'0 0.0
2018-Feb-16 14:30N 41°11' W 008°42'2 3.3
2018-Feb-16 14:00N 41°09' W 008°43'1 1.8
2018-Feb-16 13:30N 41°09' W 008°44'2 4.0
2018-Feb-16 13:01N 41°11' W 008°46'0 0.2
2018-Feb-16 12:30N 41°11' W 008°46'0 0.0
2018-Feb-16 12:00N 41°11' W 008°46'0 0.0
2018-Feb-16 11:30N 41°11' W 008°46'0 0.0
2018-Feb-16 11:00N 41°11' W 008°46'0 0.1
2018-Feb-16 10:30N 41°11' W 008°46'0 0.0
2018-Feb-16 10:00N 41°11' W 008°46'0 0.0
2018-Feb-16 09:30N 41°11' W 008°46'0 0.1
2018-Feb-16 08:57N 41°11' W 008°46'0 0.0
2018-Feb-16 08:30N 41°11' W 008°46'0 0.0
2018-Feb-16 08:00N 41°11' W 008°46'0 0.1
2018-Feb-16 07:30N 41°11' W 008°46'0 0.1
2018-Feb-16 07:00N 41°11' W 008°46'0 0.0
2018-Feb-16 06:30N 41°11' W 008°46'0 0.0
2018-Feb-16 06:00N 41°11' W 008°46'0 0.0
2018-Feb-16 05:21N 41°11' W 008°46'0 0.0
2018-Feb-16 04:54N 41°11' W 008°46'0 0.1
2018-Feb-16 04:30N 41°11' W 008°46'0 0.0
2018-Feb-16 03:57N 41°11' W 008°46'0 0.0
2018-Feb-16 03:27N 41°11' W 008°46'0 0.0
2018-Feb-16 03:00N 41°11' W 008°46'0 0.0
2018-Feb-16 02:30N 41°11' W 008°46'0 0.0
2018-Feb-16 02:00N 41°11' W 008°46'0 0.0
2018-Feb-16 01:24N 41°11' W 008°46'0 0.0
2018-Feb-16 01:00N 41°11' W 008°46'0 0.0
2018-Feb-16 00:27N 41°11' W 008°46'0 0.0
2018-Feb-16 00:00N 41°11' W 008°46'0 0.0
2018-Feb-15 23:18N 41°11' W 008°46'0 0.0
2018-Feb-15 23:00N 41°11' W 008°46'0 0.0
2018-Feb-15 22:27N 41°11' W 008°46'0 0.0
2018-Feb-15 21:51N 41°11' W 008°46'0 0.0
2018-Feb-15 21:30N 41°11' W 008°46'0 0.0
2018-Feb-15 21:00N 41°11' W 008°46'0 0.0
2018-Feb-15 20:30N 41°11' W 008°46'0 0.0
2018-Feb-15 19:57N 41°11' W 008°46'0 0.0
2018-Feb-15 19:30N 41°11' W 008°46'0 0.0
2018-Feb-15 19:00N 41°11' W 008°46'0 0.0
2018-Feb-15 18:30N 41°11' W 008°46'0 0.0
2018-Feb-15 17:57N 41°11' W 008°46'0 0.0
2018-Feb-15 17:30N 41°11' W 008°46'0 0.0
2018-Feb-15 17:00N 41°11' W 008°46'0 0.0
2018-Feb-15 16:30N 41°11' W 008°46'0 0.0
2018-Feb-15 15:54N 41°11' W 008°46'0 0.0
2018-Feb-15 15:30N 41°11' W 008°46'0 0.0
2018-Feb-15 15:00N 41°11' W 008°46'0 0.0
2018-Feb-15 14:30N 41°11' W 008°46'0 0.0
2018-Feb-15 14:00N 41°11' W 008°46'0 0.0
2018-Feb-15 13:30N 41°11' W 008°46'0 0.0
2018-Feb-15 13:00N 41°11' W 008°46'0 0.0
2018-Feb-15 12:30N 41°11' W 008°46'0 0.0
2018-Feb-15 12:00N 41°11' W 008°46'0 0.0
2018-Feb-15 11:30N 41°11' W 008°46'0 0.0
2018-Feb-15 11:00N 41°11' W 008°46'0 0.0
2018-Feb-15 10:24N 41°11' W 008°46'0 0.0
2018-Feb-15 10:00N 41°11' W 008°46'0 0.0
2018-Feb-15 09:30N 41°11' W 008°46'0 0.0
2018-Feb-15 09:00N 41°11' W 008°46'0 0.0
2018-Feb-15 08:27N 41°11' W 008°46'0 0.0
2018-Feb-15 08:00N 41°11' W 008°46'0 0.0
2018-Feb-15 07:21N 41°11' W 008°46'0 0.0
2018-Feb-15 06:51N 41°11' W 008°46'0 0.0
2018-Feb-15 06:24N 41°11' W 008°46'0 0.0
2018-Feb-15 06:00N 41°11' W 008°46'0 0.0
2018-Feb-15 05:30N 41°11' W 008°46'0 0.0
2018-Feb-15 04:57N 41°11' W 008°46'0 0.0
2018-Feb-15 04:27N 41°11' W 008°46'0 0.0
2018-Feb-15 03:51N 41°11' W 008°46'0 0.0
2018-Feb-15 03:27N 41°11' W 008°46'0 0.0
2018-Feb-15 03:00N 41°11' W 008°46'0 0.0
2018-Feb-15 02:30N 41°11' W 008°46'0 0.0
2018-Feb-15 02:00N 41°11' W 008°46'0 0.0
2018-Feb-15 01:30N 41°11' W 008°46'0 0.0
2018-Feb-15 00:54N 41°11' W 008°46'0 0.0
2018-Feb-15 00:27N 41°11' W 008°46'0 0.0
2018-Feb-15 00:00N 41°11' W 008°46'0 0.0
2018-Feb-14 23:30N 41°11' W 008°46'0 0.0
2018-Feb-14 23:00N 41°11' W 008°46'2 4.1
2018-Feb-14 22:30N 41°11' W 008°49'3 0.3
2018-Feb-14 14:14N 41°08' W 008°50'2 8.6
2018-Feb-14 14:00N 41°08' W 008°47'4 8.3
2018-Feb-14 13:30N 41°10' W 008°43'1 2.1
2018-Feb-14 13:00N 41°11' W 008°43'0 0.0
2018-Feb-14 12:30N 41°11' W 008°43'0 0.0
2018-Feb-14 12:00N 41°11' W 008°43'0 0.0
2018-Feb-14 11:30N 41°11' W 008°43'0 0.0
2018-Feb-14 11:00N 41°11' W 008°43'0 0.0
2018-Feb-14 10:27N 41°11' W 008°43'0 0.0
2018-Feb-14 10:00N 41°11' W 008°43'0 0.0
2018-Feb-14 09:30N 41°11' W 008°43'0 0.0
2018-Feb-14 09:00N 41°11' W 008°43'0 0.0
2018-Feb-14 08:30N 41°11' W 008°43'0 0.0
2018-Feb-14 08:00N 41°11' W 008°43'0 0.0
2018-Feb-14 07:30N 41°11' W 008°43'0 0.0
2018-Feb-14 07:00N 41°11' W 008°43'0 0.0
2018-Feb-14 06:30N 41°11' W 008°43'0 0.0
2018-Feb-14 06:00N 41°11' W 008°43'0 0.0
2018-Feb-14 05:30N 41°11' W 008°43'0 0.0
2018-Feb-14 05:00N 41°11' W 008°43'0 0.0
2018-Feb-14 04:30N 41°11' W 008°43'0 0.0
2018-Feb-14 04:00N 41°11' W 008°43'0 0.0
2018-Feb-14 03:30N 41°11' W 008°43'0 0.0
2018-Feb-14 03:00N 41°11' W 008°43'0 0.0
2018-Feb-14 02:30N 41°11' W 008°43'0 0.0
2018-Feb-14 02:00N 41°11' W 008°43'0 0.0
2018-Feb-14 01:30N 41°11' W 008°43'0 0.0
2018-Feb-14 01:00N 41°11' W 008°43'0 0.0
2018-Feb-14 00:30N 41°11' W 008°43'0 0.0
2018-Feb-14 00:00N 41°11' W 008°43'0 0.0
2018-Feb-13 23:30N 41°11' W 008°43'0 0.0
2018-Feb-13 23:00N 41°11' W 008°43'0 0.0
2018-Feb-13 22:30N 41°11' W 008°43'0 0.0
2018-Feb-13 22:00N 41°11' W 008°43'0 0.0
2018-Feb-13 21:30N 41°11' W 008°43'0 0.0
2018-Feb-13 21:00N 41°11' W 008°43'0 0.0
2018-Feb-13 20:30N 41°11' W 008°43'0 0.0
2018-Feb-13 20:00N 41°11' W 008°43'0 0.0
2018-Feb-13 19:30N 41°11' W 008°43'0 0.0
2018-Feb-13 19:00N 41°11' W 008°43'0 0.0
2018-Feb-13 18:30N 41°11' W 008°43'0 0.0
2018-Feb-13 18:00N 41°11' W 008°43'0 0.0
2018-Feb-13 17:30N 41°11' W 008°43'0 0.0
2018-Feb-13 17:00N 41°11' W 008°43'0 0.0
2018-Feb-13 16:30N 41°11' W 008°43'0 0.0
2018-Feb-13 16:00N 41°11' W 008°43'0 0.0
2018-Feb-13 15:30N 41°11' W 008°43'0 0.0
2018-Feb-13 15:00N 41°11' W 008°43'0 0.0
2018-Feb-13 14:30N 41°11' W 008°43'0 0.0
2018-Feb-13 14:00N 41°11' W 008°43'0 0.0
2018-Feb-13 13:30N 41°11' W 008°43'0 0.0
2018-Feb-13 13:00N 41°11' W 008°43'0 0.0
2018-Feb-13 12:30N 41°11' W 008°43'0 0.0
2018-Feb-13 12:00N 41°11' W 008°43'0 0.0
2018-Feb-13 11:30N 41°11' W 008°43'0 0.2
2018-Feb-13 11:00N 41°11' W 008°42'2 3.4
2018-Feb-13 10:30N 41°10' W 008°44'2 3.6
2018-Feb-13 09:59N 41°10' W 008°47'0 0.1
2018-Feb-13 09:22N 41°10' W 008°46'0 0.0
2018-Feb-13 08:55N 41°10' W 008°46'0 0.0
2018-Feb-13 08:25N 41°10' W 008°46'0 0.0
2018-Feb-13 07:58N 41°10' W 008°46'0 0.0
2018-Feb-13 07:28N 41°10' W 008°46'0 0.0
2018-Feb-13 06:58N 41°10' W 008°46'0 0.1
2018-Feb-13 06:28N 41°10' W 008°47'0 0.1
2018-Feb-13 05:58N 41°10' W 008°47'0 0.0
2018-Feb-13 05:28N 41°10' W 008°47'0 0.0
2018-Feb-13 05:01N 41°10' W 008°47'0 0.0
2018-Feb-13 04:28N 41°10' W 008°47'0 0.0
2018-Feb-13 03:58N 41°10' W 008°47'0 0.1
2018-Feb-13 03:28N 41°10' W 008°47'0 0.1
2018-Feb-13 02:58N 41°10' W 008°47'0 0.2
2018-Feb-13 02:28N 41°10' W 008°46'0 0.0
2018-Feb-13 01:57N 41°10' W 008°46'0 0.0
2018-Feb-13 01:28N 41°10' W 008°46'0 0.0
2018-Feb-13 00:58N 41°10' W 008°47'0 0.0
2018-Feb-13 00:27N 41°10' W 008°47'0 0.0
2018-Feb-12 23:58N 41°10' W 008°47'0 0.0
2018-Feb-12 23:28N 41°10' W 008°47'0 0.0
2018-Feb-12 22:58N 41°10' W 008°47'0 0.0
2018-Feb-12 22:28N 41°10' W 008°47'0 0.0
2018-Feb-12 21:58N 41°10' W 008°47'0 0.0
2018-Feb-12 21:28N 41°10' W 008°47'0 0.0
2018-Feb-12 20:58N 41°10' W 008°47'0 0.0
2018-Feb-12 20:27N 41°10' W 008°47'0 0.0
2018-Feb-12 19:58N 41°10' W 008°47'0 0.0
2018-Feb-12 19:28N 41°10' W 008°47'0 0.0
2018-Feb-12 19:01N 41°10' W 008°47'0 0.0
2018-Feb-12 18:30N 41°10' W 008°47'0 0.0
2018-Feb-12 17:58N 41°10' W 008°47'0 0.0
2018-Feb-12 17:28N 41°10' W 008°47'0 0.0
2018-Feb-12 16:58N 41°10' W 008°47'0 0.0
2018-Feb-12 16:27N 41°10' W 008°47'0 0.0
2018-Feb-12 15:58N 41°10' W 008°47'0 0.0
2018-Feb-12 15:15N 41°10' W 008°47'0 0.0
2018-Feb-12 14:57N 41°10' W 008°47'0 0.0
2018-Feb-12 14:19N 41°10' W 008°47'0 0.0
2018-Feb-12 14:00N 41°10' W 008°47'0 0.0
2018-Feb-12 13:28N 41°10' W 008°47'0 0.1
2018-Feb-12 13:00N 41°10' W 008°47'0 0.4
2018-Feb-12 12:30N 41°10' W 008°47'  
Track history (hours):
 
Tides and Currents Weather Stations Pressure Air Temp Water Temp Dewpoint Dewpoint Depression Visibility Wind Speed Wind Dir Waves Ship Positions

Atlantis Alhambra

Last reported at 2018-Feb-20 02:30 UTC. Time now 2018-Feb-20 08:06 UTC.
Position N 49°06' W 004°47'.

Length 109 m; draft 7 m.

Type: Ship (hazmat cat B). MMSI: 249960000.

Date/timePositionNaut miles runAvg speedWind from/ knotsBaromVisibWave heightAir tempDewpointWater temp
2018-Feb-20 02:30N 49°06' W 004°47'  
2018-Feb-17 20:23N 41°09' W 008°50'4 9.7
2018-Feb-17 20:00N 41°10' W 008°45'2 4.1
2018-Feb-17 19:30N 41°11' W 008°43'0 0.1
2018-Feb-17 18:59N 41°11' W 008°43'0 0.0
2018-Feb-17 18:29N 41°11' W 008°43'0 0.0
2018-Feb-17 17:59N 41°11' W 008°43'0 0.0
2018-Feb-17 17:29N 41°11' W 008°43'0 0.0
2018-Feb-17 16:59N 41°11' W 008°43'0 0.0
2018-Feb-17 16:29N 41°11' W 008°43'0 0.0
2018-Feb-17 15:59N 41°11' W 008°43'0 0.0
2018-Feb-17 15:29N 41°11' W 008°43'0 0.0
2018-Feb-17 14:59N 41°11' W 008°43'0 0.0
2018-Feb-17 14:29N 41°11' W 008°43'0 0.0
2018-Feb-17 13:59N 41°11' W 008°43'0 0.0
2018-Feb-17 13:29N 41°11' W 008°43'0 0.0
2018-Feb-17 12:59N 41°11' W 008°43'0 0.0
2018-Feb-17 12:29N 41°11' W 008°43'0 0.0
2018-Feb-17 11:59N 41°11' W 008°43'0 0.0
2018-Feb-17 11:29N 41°11' W 008°43'0 0.0
2018-Feb-17 10:59N 41°11' W 008°43'0 0.0
2018-Feb-17 10:29N 41°11' W 008°43'0 0.0
2018-Feb-17 09:59N 41°11' W 008°43'0 0.0
2018-Feb-17 09:29N 41°11' W 008°43'0 0.0
2018-Feb-17 08:59N 41°11' W 008°43'0 0.0
2018-Feb-17 08:29N 41°11' W 008°43'0 0.0
2018-Feb-17 07:59N 41°11' W 008°43'0 0.0
2018-Feb-17 07:29N 41°11' W 008°43'0 0.0
2018-Feb-17 06:59N 41°11' W 008°43'0 0.0
2018-Feb-17 06:29N 41°11' W 008°43'0 0.0
2018-Feb-17 05:59N 41°11' W 008°43'0 0.0
2018-Feb-17 05:29N 41°11' W 008°43'0 0.0
2018-Feb-17 04:59N 41°11' W 008°43'0 0.0
2018-Feb-17 04:29N 41°11' W 008°43'0 0.0
2018-Feb-17 03:59N 41°11' W 008°43'0 0.0
2018-Feb-17 03:29N 41°11' W 008°43'0 0.0
2018-Feb-17 02:59N 41°11' W 008°43'0 0.0
2018-Feb-17 02:29N 41°11' W 008°43'0 0.1
2018-Feb-17 02:00N 41°11' W 008°43'0 0.9
2018-Feb-17 01:30N 41°11' W 008°42'0 0.0
2018-Feb-17 00:59N 41°11' W 008°42'0 0.0
2018-Feb-17 00:29N 41°11' W 008°42'0 0.0
2018-Feb-16 23:59N 41°11' W 008°42'0 0.0
2018-Feb-16 23:29N 41°11' W 008°42'0 0.0
2018-Feb-16 22:59N 41°11' W 008°42'0 0.0
2018-Feb-16 22:29N 41°11' W 008°42'0 0.0
2018-Feb-16 21:59N 41°11' W 008°42'0 0.0
2018-Feb-16 21:29N 41°11' W 008°42'0 0.0
2018-Feb-16 20:59N 41°11' W 008°42'0 0.0
2018-Feb-16 20:29N 41°11' W 008°42'0 0.0
2018-Feb-16 19:59N 41°11' W 008°42'0 0.0
2018-Feb-16 19:29N 41°11' W 008°42'0 0.0
2018-Feb-16 18:59N 41°11' W 008°42'0 0.0
2018-Feb-16 18:29N 41°11' W 008°42'0 0.0
2018-Feb-16 17:59N 41°11' W 008°42'0 0.0
2018-Feb-16 17:29N 41°11' W 008°42'0 0.0
2018-Feb-16 16:59N 41°11' W 008°42'0 0.0
2018-Feb-16 16:23N 41°11' W 008°42'0 0.0
2018-Feb-16 15:59N 41°11' W 008°42'0 0.0
2018-Feb-16 15:29N 41°11' W 008°42'0 0.0
2018-Feb-16 14:59N 41°11' W 008°42'0 0.0
2018-Feb-16 14:30N 41°11' W 008°42'2 3.3
2018-Feb-16 14:00N 41°09' W 008°43'1 1.8
2018-Feb-16 13:30N 41°09' W 008°44'2 4.0
2018-Feb-16 13:01N 41°11' W 008°46'0 0.2
2018-Feb-16 12:30N 41°11' W 008°46'0 0.0
2018-Feb-16 12:00N 41°11' W 008°46'0 0.0
2018-Feb-16 11:30N 41°11' W 008°46'0 0.0
2018-Feb-16 11:00N 41°11' W 008°46'0 0.1
2018-Feb-16 10:30N 41°11' W 008°46'0 0.0
2018-Feb-16 10:00N 41°11' W 008°46'0 0.0
2018-Feb-16 09:30N 41°11' W 008°46'0 0.1
2018-Feb-16 08:57N 41°11' W 008°46'0 0.0
2018-Feb-16 08:30N 41°11' W 008°46'0 0.0
2018-Feb-16 08:00N 41°11' W 008°46'0 0.1
2018-Feb-16 07:30N 41°11' W 008°46'0 0.1
2018-Feb-16 07:00N 41°11' W 008°46'0 0.0
2018-Feb-16 06:30N 41°11' W 008°46'0 0.0
2018-Feb-16 06:00N 41°11' W 008°46'0 0.0
2018-Feb-16 05:21N 41°11' W 008°46'0 0.0
2018-Feb-16 04:54N 41°11' W 008°46'0 0.1
2018-Feb-16 04:30N 41°11' W 008°46'0 0.0
2018-Feb-16 03:57N 41°11' W 008°46'0 0.0
2018-Feb-16 03:27N 41°11' W 008°46'0 0.0
2018-Feb-16 03:00N 41°11' W 008°46'0 0.0
2018-Feb-16 02:30N 41°11' W 008°46'0 0.0
2018-Feb-16 02:00N 41°11' W 008°46'0 0.0
2018-Feb-16 01:24N 41°11' W 008°46'0 0.0
2018-Feb-16 01:00N 41°11' W 008°46'0 0.0
2018-Feb-16 00:27N 41°11' W 008°46'0 0.0
2018-Feb-16 00:00N 41°11' W 008°46'0 0.0
2018-Feb-15 23:18N 41°11' W 008°46'0 0.0
2018-Feb-15 23:00N 41°11' W 008°46'0 0.0
2018-Feb-15 22:27N 41°11' W 008°46'0 0.0
2018-Feb-15 21:51N 41°11' W 008°46'0 0.0
2018-Feb-15 21:30N 41°11' W 008°46'0 0.0
2018-Feb-15 21:00N 41°11' W 008°46'0 0.0
2018-Feb-15 20:30N 41°11' W 008°46'0 0.0
2018-Feb-15 19:57N 41°11' W 008°46'0 0.0
2018-Feb-15 19:30N 41°11' W 008°46'0 0.0
2018-Feb-15 19:00N 41°11' W 008°46'0 0.0
2018-Feb-15 18:30N 41°11' W 008°46'0 0.0
2018-Feb-15 17:57N 41°11' W 008°46'0 0.0
2018-Feb-15 17:30N 41°11' W 008°46'0 0.0
2018-Feb-15 17:00N 41°11' W 008°46'0 0.0
2018-Feb-15 16:30N 41°11' W 008°46'0 0.0
2018-Feb-15 15:54N 41°11' W 008°46'0 0.0
2018-Feb-15 15:30N 41°11' W 008°46'0 0.0
2018-Feb-15 15:00N 41°11' W 008°46'0 0.0
2018-Feb-15 14:30N 41°11' W 008°46'0 0.0
2018-Feb-15 14:00N 41°11' W 008°46'0 0.0
2018-Feb-15 13:30N 41°11' W 008°46'0 0.0
2018-Feb-15 13:00N 41°11' W 008°46'0 0.0
2018-Feb-15 12:30N 41°11' W 008°46'0 0.0
2018-Feb-15 12:00N 41°11' W 008°46'0 0.0
2018-Feb-15 11:30N 41°11' W 008°46'0 0.0
2018-Feb-15 11:00N 41°11' W 008°46'0 0.0
2018-Feb-15 10:24N 41°11' W 008°46'0 0.0
2018-Feb-15 10:00N 41°11' W 008°46'0 0.0
2018-Feb-15 09:30N 41°11' W 008°46'0 0.0
2018-Feb-15 09:00N 41°11' W 008°46'0 0.0
2018-Feb-15 08:27N 41°11' W 008°46'0 0.0
2018-Feb-15 08:00N 41°11' W 008°46'0 0.0
2018-Feb-15 07:21N 41°11' W 008°46'0 0.0
2018-Feb-15 06:51N 41°11' W 008°46'0 0.0
2018-Feb-15 06:24N 41°11' W 008°46'0 0.0
2018-Feb-15 06:00N 41°11' W 008°46'0 0.0
2018-Feb-15 05:30N 41°11' W 008°46'0 0.0
2018-Feb-15 04:57N 41°11' W 008°46'0 0.0
2018-Feb-15 04:27N 41°11' W 008°46'0 0.0
2018-Feb-15 03:51N 41°11' W 008°46'0 0.0
2018-Feb-15 03:27N 41°11' W 008°46'0 0.0
2018-Feb-15 03:00N 41°11' W 008°46'0 0.0
2018-Feb-15 02:30N 41°11' W 008°46'0 0.0
2018-Feb-15 02:00N 41°11' W 008°46'0 0.0
2018-Feb-15 01:30N 41°11' W 008°46'0 0.0
2018-Feb-15 00:54N 41°11' W 008°46'0 0.0
2018-Feb-15 00:27N 41°11' W 008°46'0 0.0
2018-Feb-15 00:00N 41°11' W 008°46'0 0.0
2018-Feb-14 23:30N 41°11' W 008°46'0 0.0
2018-Feb-14 23:00N 41°11' W 008°46'2 4.1
2018-Feb-14 22:30N 41°11' W 008°49'3 0.3
2018-Feb-14 14:14N 41°08' W 008°50'2 8.6
2018-Feb-14 14:00N 41°08' W 008°47'4 8.3
2018-Feb-14 13:30N 41°10' W 008°43'1 2.1
2018-Feb-14 13:00N 41°11' W 008°43'0 0.0
2018-Feb-14 12:30N 41°11' W 008°43'0 0.0
2018-Feb-14 12:00N 41°11' W 008°43'0 0.0
2018-Feb-14 11:30N 41°11' W 008°43'0 0.0
2018-Feb-14 11:00N 41°11' W 008°43'0 0.0
2018-Feb-14 10:27N 41°11' W 008°43'0 0.0
2018-Feb-14 10:00N 41°11' W 008°43'0 0.0
2018-Feb-14 09:30N 41°11' W 008°43'0 0.0
2018-Feb-14 09:00N 41°11' W 008°43'0 0.0
2018-Feb-14 08:30N 41°11' W 008°43'0 0.0
2018-Feb-14 08:00N 41°11' W 008°43'0 0.0
2018-Feb-14 07:30N 41°11' W 008°43'0 0.0
2018-Feb-14 07:00N 41°11' W 008°43'0 0.0
2018-Feb-14 06:30N 41°11' W 008°43'0 0.0
2018-Feb-14 06:00N 41°11' W 008°43'0 0.0
2018-Feb-14 05:30N 41°11' W 008°43'0 0.0
2018-Feb-14 05:00N 41°11' W 008°43'0 0.0
2018-Feb-14 04:30N 41°11' W 008°43'0 0.0
2018-Feb-14 04:00N 41°11' W 008°43'0 0.0
2018-Feb-14 03:30N 41°11' W 008°43'0 0.0
2018-Feb-14 03:00N 41°11' W 008°43'0 0.0
2018-Feb-14 02:30N 41°11' W 008°43'0 0.0
2018-Feb-14 02:00N 41°11' W 008°43'0 0.0
2018-Feb-14 01:30N 41°11' W 008°43'0 0.0
2018-Feb-14 01:00N 41°11' W 008°43'0 0.0
2018-Feb-14 00:30N 41°11' W 008°43'0 0.0
2018-Feb-14 00:00N 41°11' W 008°43'0 0.0
2018-Feb-13 23:30N 41°11' W 008°43'0 0.0
2018-Feb-13 23:00N 41°11' W 008°43'0 0.0
2018-Feb-13 22:30N 41°11' W 008°43'0 0.0
2018-Feb-13 22:00N 41°11' W 008°43'0 0.0
2018-Feb-13 21:30N 41°11' W 008°43'0 0.0
2018-Feb-13 21:00N 41°11' W 008°43'0 0.0
2018-Feb-13 20:30N 41°11' W 008°43'0 0.0
2018-Feb-13 20:00N 41°11' W 008°43'0 0.0
2018-Feb-13 19:30N 41°11' W 008°43'0 0.0
2018-Feb-13 19:00N 41°11' W 008°43'0 0.0
2018-Feb-13 18:30N 41°11' W 008°43'0 0.0
2018-Feb-13 18:00N 41°11' W 008°43'0 0.0
2018-Feb-13 17:30N 41°11' W 008°43'0 0.0
2018-Feb-13 17:00N 41°11' W 008°43'0 0.0
2018-Feb-13 16:30N 41°11' W 008°43'0 0.0
2018-Feb-13 16:00N 41°11' W 008°43'0 0.0
2018-Feb-13 15:30N 41°11' W 008°43'0 0.0
2018-Feb-13 15:00N 41°11' W 008°43'0 0.0
2018-Feb-13 14:30N 41°11' W 008°43'0 0.0
2018-Feb-13 14:00N 41°11' W 008°43'0 0.0
2018-Feb-13 13:30N 41°11' W 008°43'0 0.0
2018-Feb-13 13:00N 41°11' W 008°43'0 0.0
2018-Feb-13 12:30N 41°11' W 008°43'0 0.0
2018-Feb-13 12:00N 41°11' W 008°43'0 0.0
2018-Feb-13 11:30N 41°11' W 008°43'0 0.2
2018-Feb-13 11:00N 41°11' W 008°42'2 3.4
2018-Feb-13 10:30N 41°10' W 008°44'2 3.6
2018-Feb-13 09:59N 41°10' W 008°47'0 0.1
2018-Feb-13 09:22N 41°10' W 008°46'0 0.0
2018-Feb-13 08:55N 41°10' W 008°46'0 0.0
2018-Feb-13 08:25N 41°10' W 008°46'0 0.0
2018-Feb-13 07:58N 41°10' W 008°46'0 0.0
2018-Feb-13 07:28N 41°10' W 008°46'0 0.0
2018-Feb-13 06:58N 41°10' W 008°46'0 0.1
2018-Feb-13 06:28N 41°10' W 008°47'0 0.1
2018-Feb-13 05:58N 41°10' W 008°47'0 0.0
2018-Feb-13 05:28N 41°10' W 008°47'0 0.0
2018-Feb-13 05:01N 41°10' W 008°47'0 0.0
2018-Feb-13 04:28N 41°10' W 008°47'0 0.0
2018-Feb-13 03:58N 41°10' W 008°47'0 0.1
2018-Feb-13 03:28N 41°10' W 008°47'0 0.1
2018-Feb-13 02:58N 41°10' W 008°47'0 0.2
2018-Feb-13 02:28N 41°10' W 008°46'0 0.0
2018-Feb-13 01:57N 41°10' W 008°46'0 0.0
2018-Feb-13 01:28N 41°10' W 008°46'0 0.0
2018-Feb-13 00:58N 41°10' W 008°47'0 0.0
2018-Feb-13 00:27N 41°10' W 008°47'0 0.0
2018-Feb-12 23:58N 41°10' W 008°47'0 0.0
2018-Feb-12 23:28N 41°10' W 008°47'0 0.0
2018-Feb-12 22:58N 41°10' W 008°47'0 0.0
2018-Feb-12 22:28N 41°10' W 008°47'0 0.0
2018-Feb-12 21:58N 41°10' W 008°47'0 0.0
2018-Feb-12 21:28N 41°10' W 008°47'0 0.0
2018-Feb-12 20:58N 41°10' W 008°47'0 0.0
2018-Feb-12 20:27N 41°10' W 008°47'0 0.0
2018-Feb-12 19:58N 41°10' W 008°47'0 0.0
2018-Feb-12 19:28N 41°10' W 008°47'0 0.0
2018-Feb-12 19:01N 41°10' W 008°47'0 0.0
2018-Feb-12 18:30N 41°10' W 008°47'0 0.0
2018-Feb-12 17:58N 41°10' W 008°47'0 0.0
2018-Feb-12 17:28N 41°10' W 008°47'0 0.0
2018-Feb-12 16:58N 41°10' W 008°47'0 0.0
2018-Feb-12 16:27N 41°10' W 008°47'0 0.0
2018-Feb-12 15:58N 41°10' W 008°47'0 0.0
2018-Feb-12 15:15N 41°10' W 008°47'0 0.0
2018-Feb-12 14:57N 41°10' W 008°47'0 0.0
2018-Feb-12 14:19N 41°10' W 008°47'0 0.0
2018-Feb-12 14:00N 41°10' W 008°47'0 0.0
2018-Feb-12 13:28N 41°10' W 008°47'0 0.1
2018-Feb-12 13:00N 41°10' W 008°47'0 0.4
2018-Feb-12 12:30N 41°10' W 008°47'  

Dump ship's entire track history